Time;durP1;ratioP1;P1;durP2;ratioP2;P2;SDS_P1;SDS_P2;PMS_P1;PMS_P2;Temp;Humidity;BMP_temperature;BMP_pressure;BME280_temperature;BME280_humidity;BME280_pressure;Samples;Min_cycle;Max_cycle;Signal;HPM_P1;HPM_P2
2022/02/12 00:01:01;;;;;;;7.80;4.30;;;5.70;98.70;;;;;;5098854;28;20223;-64
2022/02/12 00:03:29;;;;;;;8.20;5.28;;;5.70;98.80;;;;;;5107650;27;20696;-64
2022/02/12 00:05:57;;;;;;;14.45;10.60;;;5.70;98.90;;;;;;5102553;27;20243;-64
2022/02/12 00:08:24;;;;;;;63.15;40.15;;;5.70;99.10;;;;;;5110738;28;20247;-63
2022/02/12 00:10:51;;;;;;;24.65;17.30;;;5.70;99.20;;;;;;5116282;28;20578;-64
2022/02/12 00:13:21;;;;;;;51.15;31.08;;;5.70;99.40;;;;;;5111508;28;20581;-64
2022/02/12 00:15:48;;;;;;;8.98;5.40;;;5.70;99.60;;;;;;5108562;27;20219;-64
2022/02/12 00:18:16;;;;;;;6.95;4.00;;;5.70;99.70;;;;;;5102620;28;20223;-64
2022/02/12 00:20:44;;;;;;;7.80;2.95;;;5.70;99.50;;;;;;5113150;27;20230;-64
2022/02/12 00:23:11;;;;;;;4.95;3.53;;;5.70;99.50;;;;;;5115281;28;20234;-64
2022/02/12 00:25:37;;;;;;;6.90;3.53;;;5.70;99.50;;;;;;5104883;27;20273;-64
2022/02/12 00:28:05;;;;;;;6.13;3.88;;;5.70;99.60;;;;;;5111539;28;20554;-64
2022/02/12 00:30:32;;;;;;;3.97;2.97;;;5.70;99.60;;;;;;5116480;28;20219;-64
2022/02/12 00:32:59;;;;;;;5.70;3.55;;;5.70;99.60;;;;;;5109118;28;20230;-64
2022/02/12 00:35:26;;;;;;;4.32;3.13;;;5.70;99.60;;;;;;5113922;27;20223;-64
2022/02/12 00:37:54;;;;;;;4.47;3.60;;;5.70;99.70;;;;;;5102270;28;20223;-64
2022/02/12 00:40:22;;;;;;;6.05;3.67;;;5.60;99.70;;;;;;5109735;27;20231;-64
2022/02/12 00:42:50;;;;;;;7.88;3.65;;;5.70;99.80;;;;;;5106112;27;20277;-64
2022/02/12 00:45:16;;;;;;;6.60;3.13;;;5.60;99.80;;;;;;5115464;27;20219;-63
2022/02/12 00:47:43;;;;;;;5.65;3.92;;;5.60;99.90;;;;;;5109946;27;20234;-64
2022/02/12 00:50:10;;;;;;;4.95;3.30;;;5.60;99.90;;;;;;5097764;28;20234;-64
2022/02/12 00:52:37;;;;;;;5.10;4.25;;;5.60;99.90;;;;;;5111670;27;20645;-64
2022/02/12 00:55:07;;;;;;;8.73;4.85;;;5.50;99.90;;;;;;5108946;27;20227;-64
2022/02/12 00:57:34;;;;;;;9.02;3.65;;;5.60;99.90;;;;;;5107867;27;20673;-64
2022/02/12 01:00:00;;;;;;;6.07;4.45;;;5.60;99.90;;;;;;5108435;27;20241;-64
2022/02/12 01:02:28;;;;;;;4.63;3.78;;;5.50;99.90;;;;;;5102149;27;20233;-64
2022/02/12 01:04:55;;;;;;;7.43;4.22;;;5.50;99.90;;;;;;5104187;28;20223;-64
2022/02/12 01:07:22;;;;;;;7.78;4.47;;;5.50;99.90;;;;;;5103525;28;20228;-64
2022/02/12 01:09:49;;;;;;;5.28;3.67;;;5.40;99.90;;;;;;5109089;27;20215;-64
2022/02/12 01:12:17;;;;;;;6.50;3.60;;;5.40;99.90;;;;;;5110186;27;20226;-64
2022/02/12 01:14:44;;;;;;;6.55;3.88;;;5.40;99.90;;;;;;5114421;27;20215;-64
2022/02/12 01:17:11;;;;;;;6.15;3.45;;;5.40;99.90;;;;;;5108318;27;20673;-64
2022/02/12 01:19:38;;;;;;;7.22;3.85;;;5.40;99.90;;;;;;5107015;27;20223;-64
2022/02/12 01:22:04;;;;;;;8.10;3.45;;;5.40;99.90;;;;;;5115140;27;20223;-63
2022/02/12 01:24:32;;;;;;;7.72;3.53;;;5.40;99.90;;;;;;5108576;28;20223;-63
2022/02/12 01:27:06;;;;;;;7.40;3.67;;;5.30;99.90;;;;;;5105801;28;20230;-64
2022/02/12 01:29:35;;;;;;;6.50;3.40;;;5.30;99.90;;;;;;5112161;27;20279;-64
2022/02/12 01:32:04;;;;;;;8.55;3.38;;;5.30;99.90;;;;;;5106776;28;20241;-64
2022/02/12 01:34:33;;;;;;;6.05;3.35;;;5.30;99.90;;;;;;5102298;27;20224;-64
2022/02/12 01:37:00;;;;;;;5.93;3.20;;;5.30;99.90;;;;;;5106383;28;20694;-64
2022/02/12 01:39:27;;;;;;;10.38;3.75;;;5.30;99.90;;;;;;5106179;27;20361;-64
2022/02/12 01:41:54;;;;;;;8.10;3.58;;;5.30;99.90;;;;;;5114218;28;20234;-64
2022/02/12 01:44:30;;;;;;;5.60;3.60;;;5.30;99.90;;;;;;5109151;28;20227;-64
2022/02/12 01:47:01;;;;;;;7.13;2.70;;;5.30;99.90;;;;;;5103584;28;20231;-64
2022/02/12 01:49:32;;;;;;;7.00;4.15;;;5.30;99.90;;;;;;5113468;27;20223;-64
2022/02/12 01:51:59;;;;;;;11.55;5.05;;;5.30;99.90;;;;;;5098740;28;20231;-64
2022/02/12 01:54:28;;;;;;;4.63;3.50;;;5.30;99.90;;;;;;5109963;28;20558;-64
2022/02/12 01:56:56;;;;;;;9.68;3.30;;;5.30;99.90;;;;;;5114090;27;20226;-64
2022/02/12 01:59:27;;;;;;;6.25;3.22;;;5.30;99.90;;;;;;5107768;28;20272;-64
2022/02/12 02:01:54;;;;;;;6.32;3.33;;;5.40;99.90;;;;;;5098917;28;20221;-64
2022/02/12 02:04:23;;;;;;;5.70;3.40;;;5.40;99.90;;;;;;5105446;28;20219;-64
2022/02/12 02:06:50;;;;;;;4.07;3.15;;;5.40;99.90;;;;;;5111842;27;20219;-64
2022/02/12 02:09:18;;;;;;;7.43;2.97;;;5.40;99.90;;;;;;5113979;27;20229;-64
2022/02/12 02:11:48;;;;;;;9.32;3.40;;;5.40;99.90;;;;;;5104354;28;20245;-64
2022/02/12 02:14:16;;;;;;;7.93;3.90;;;5.40;99.90;;;;;;5107877;27;20218;-64
2022/02/12 02:16:44;;;;;;;6.00;3.35;;;5.40;99.90;;;;;;5102830;28;20679;-64
2022/02/12 02:19:12;;;;;;;5.25;3.28;;;5.40;99.90;;;;;;5103167;28;20662;-64
2022/02/12 02:21:44;;;;;;;4.00;2.75;;;5.40;99.90;;;;;;5110895;27;20238;-64
2022/02/12 02:24:17;;;;;;;4.55;3.13;;;5.40;99.90;;;;;;5097016;28;20292;-64
2022/02/12 02:26:44;;;;;;;5.47;3.30;;;5.40;99.90;;;;;;5106540;28;20226;-64
2022/02/12 02:29:11;;;;;;;5.78;3.38;;;5.40;99.90;;;;;;5111439;28;20219;-64
2022/02/12 02:31:39;;;;;;;9.10;3.50;;;5.40;99.90;;;;;;5106907;28;20257;-64
2022/02/12 02:34:08;;;;;;;4.40;3.08;;;5.30;99.90;;;;;;5106085;27;20261;-64
2022/02/12 02:36:35;;;;;;;5.05;3.20;;;5.30;99.90;;;;;;5100019;28;20215;-64
2022/02/12 02:39:02;;;;;;;7.47;3.40;;;5.30;99.90;;;;;;5105907;27;20224;-64
2022/02/12 02:41:30;;;;;;;4.32;3.42;;;5.30;99.90;;;;;;5109061;28;20712;-64
2022/02/12 02:43:57;;;;;;;5.88;3.45;;;5.30;99.90;;;;;;5101425;28;20562;-64
2022/02/12 02:46:24;;;;;;;7.43;3.38;;;5.30;99.90;;;;;;5107103;27;20597;-64
2022/02/12 02:48:51;;;;;;;5.30;3.35;;;5.20;99.90;;;;;;5105428;28;20540;-64
2022/02/12 02:56:48;;;;;;;4.30;2.88;;;5.20;99.90;;;;;;5105665;28;20252;-64
2022/02/12 02:59:16;;;;;;;5.95;3.63;;;5.10;99.90;;;;;;5102333;28;20229;-64
2022/02/12 03:01:43;;;;;;;5.43;3.33;;;5.10;99.90;;;;;;5096997;28;20234;-64
2022/02/12 03:04:10;;;;;;;3.70;2.90;;;5.10;99.90;;;;;;5102562;27;20277;-64
2022/02/12 03:06:37;;;;;;;7.22;3.53;;;5.10;99.90;;;;;;5111808;27;20219;-64
2022/02/12 03:09:04;;;;;;;4.00;3.00;;;5.10;99.90;;;;;;5112337;27;20223;-64
2022/02/12 03:11:30;;;;;;;5.68;3.20;;;5.10;99.90;;;;;;5113623;28;20230;-63
2022/02/12 03:13:59;;;;;;;5.32;3.80;;;5.10;99.90;;;;;;5099093;27;20220;-63
2022/02/12 03:16:25;;;;;;;7.72;3.65;;;5.00;99.90;;;;;;5104463;28;20561;-63
2022/02/12 03:18:52;;;;;;;9.45;3.28;;;5.10;99.90;;;;;;5106287;28;20235;-63
2022/02/12 03:21:19;;;;;;;8.05;3.40;;;5.10;99.90;;;;;;5100237;28;20230;-63
2022/02/12 03:23:46;;;;;;;5.82;2.80;;;5.10;99.90;;;;;;5099349;27;20223;-63
2022/02/12 03:26:14;;;;;;;6.60;3.42;;;5.10;99.90;;;;;;5104513;28;20219;-63
2022/02/12 03:28:41;;;;;;;8.40;3.80;;;5.10;99.90;;;;;;5102395;28;20677;-63
2022/02/12 03:31:09;;;;;;;4.72;2.40;;;5.10;99.90;;;;;;5112328;28;20223;-63
2022/02/12 03:33:42;;;;;;;5.28;3.55;;;5.20;99.90;;;;;;5099414;28;20220;-63
2022/02/12 03:36:09;;;;;;;5.57;2.72;;;5.20;99.90;;;;;;5102674;28;20279;-63
2022/02/12 03:38:39;;;;;;;6.32;3.17;;;5.10;99.90;;;;;;5105829;28;20220;-64
2022/02/12 03:41:07;;;;;;;5.10;2.90;;;5.10;99.90;;;;;;5102588;28;20266;-63
2022/02/12 03:43:36;;;;;;;8.80;4.05;;;5.10;99.90;;;;;;5098744;28;20227;-63
2022/02/12 03:46:04;;;;;;;7.20;3.28;;;5.10;99.90;;;;;;5101147;28;20227;-63
2022/02/12 03:48:33;;;;;;;11.90;4.18;;;5.10;99.90;;;;;;5106252;28;20219;-63
2022/02/12 03:51:03;;;;;;;6.00;4.30;;;5.10;99.90;;;;;;5103663;28;20226;-64
2022/02/12 03:53:31;;;;;;;10.23;3.92;;;5.10;99.90;;;;;;5099093;28;20215;-64
2022/02/12 03:55:58;;;;;;;8.10;4.10;;;5.00;99.90;;;;;;5105204;28;20219;-64
2022/02/12 03:58:24;;;;;;;5.22;3.20;;;4.90;99.90;;;;;;5106844;28;20224;-63
2022/02/12 04:00:52;;;;;;;10.82;4.93;;;4.90;99.90;;;;;;5106502;28;20223;-63
2022/02/12 04:03:19;;;;;;;9.85;5.07;;;4.90;99.90;;;;;;5108196;27;20674;-64
2022/02/12 04:05:47;;;;;;;8.63;5.30;;;4.90;99.90;;;;;;5106041;28;20227;-63
2022/02/12 04:08:18;;;;;;;3.55;3.25;;;5.00;99.90;;;;;;5103616;27;20225;-64
2022/02/12 04:10:47;;;;;;;7.25;3.28;;;5.00;99.90;;;;;;5112622;27;20231;-63
2022/02/12 04:13:14;;;;;;;8.68;4.55;;;5.00;99.90;;;;;;5103229;28;20232;-63
2022/02/12 04:15:40;;;;;;;6.80;3.70;;;4.90;99.90;;;;;;5105944;28;20215;-63
2022/02/12 04:18:10;;;;;;;6.82;3.58;;;4.90;99.90;;;;;;5100773;28;20226;-63
2022/02/12 04:20:37;;;;;;;3.40;3.10;;;4.90;99.90;;;;;;5098791;28;20301;-63
2022/02/12 04:23:05;;;;;;;6.93;3.83;;;4.80;99.90;;;;;;5102185;28;20224;-63
2022/02/12 04:25:32;;;;;;;8.68;4.05;;;4.80;99.90;;;;;;5105818;28;20230;-63
2022/02/12 04:28:03;;;;;;;7.25;3.72;;;4.80;99.90;;;;;;5100437;28;20219;-63
2022/02/12 04:30:30;;;;;;;9.23;3.75;;;4.80;99.90;;;;;;5109984;28;20245;-63
2022/02/12 04:32:57;;;;;;;6.35;3.60;;;4.80;99.90;;;;;;5101091;28;20228;-63
2022/02/12 04:35:24;;;;;;;8.68;3.63;;;4.80;99.90;;;;;;5105756;28;20569;-64
2022/02/12 04:37:54;;;;;;;9.43;3.90;;;4.80;99.90;;;;;;5103224;28;20223;-63
2022/02/12 04:40:22;;;;;;;4.63;4.22;;;4.80;99.90;;;;;;5098274;28;20223;-63
2022/02/12 04:42:49;;;;;;;4.35;3.50;;;4.80;99.90;;;;;;5100181;28;20223;-63
2022/02/12 04:45:16;;;;;;;7.57;3.47;;;4.80;99.90;;;;;;5105180;28;20298;-63
2022/02/12 04:47:43;;;;;;;9.30;4.10;;;4.80;99.90;;;;;;5104663;28;20227;-63
2022/02/12 04:50:11;;;;;;;6.90;4.22;;;4.80;99.90;;;;;;5098119;28;20227;-63
2022/02/12 04:52:38;;;;;;;10.00;4.35;;;4.80;99.90;;;;;;5099517;28;20227;-63
2022/02/12 04:55:05;;;;;;;5.90;4.97;;;4.70;99.90;;;;;;5106085;28;20220;-63
2022/02/12 04:57:34;;;;;;;16.15;5.13;;;4.70;99.90;;;;;;5114544;28;20223;-63
2022/02/12 05:00:01;;;;;;;19.77;5.80;;;4.70;99.90;;;;;;5102355;28;20231;-62
2022/02/12 05:02:28;;;;;;;10.52;5.63;;;4.70;99.90;;;;;;5109523;27;20219;-62
2022/02/12 05:04:55;;;;;;;11.30;6.63;;;4.70;99.90;;;;;;5108449;28;20684;-63
2022/02/12 05:07:22;;;;;;;7.35;5.28;;;4.60;99.90;;;;;;5101708;28;20227;-62
2022/02/12 05:09:49;;;;;;;13.57;6.03;;;4.60;99.90;;;;;;5115608;27;20233;-62
2022/02/12 05:12:15;;;;;;;10.93;5.20;;;4.60;99.90;;;;;;5114333;27;20227;-63
2022/02/12 05:14:43;;;;;;;10.63;4.40;;;4.60;99.90;;;;;;5103655;28;20227;-62
2022/02/12 05:17:10;;;;;;;7.65;4.45;;;4.60;99.90;;;;;;5101610;28;20235;-62
2022/02/12 05:19:37;;;;;;;10.68;5.32;;;4.60;99.90;;;;;;5107197;28;20694;-63
2022/02/12 05:22:05;;;;;;;11.75;4.97;;;4.60;99.90;;;;;;5108395;27;20255;-63
2022/02/12 05:24:31;;;;;;;7.32;5.03;;;4.50;99.90;;;;;;5103780;28;20679;-62
2022/02/12 05:26:58;;;;;;;10.30;4.53;;;4.50;99.90;;;;;;5101941;28;20235;-62
2022/02/12 05:29:25;;;;;;;10.02;4.53;;;4.50;99.90;;;;;;5109886;28;20301;-62
2022/02/12 05:31:53;;;;;;;18.42;5.68;;;4.50;99.90;;;;;;5113577;28;20235;-62
2022/02/12 05:34:20;;;;;;;7.20;4.65;;;4.40;99.90;;;;;;5103912;28;20231;-63
2022/02/12 05:36:48;;;;;;;7.15;4.90;;;4.40;99.90;;;;;;5106115;27;20223;-63
2022/02/12 05:39:15;;;;;;;8.75;4.53;;;4.40;99.90;;;;;;5114365;27;20227;-63
2022/02/12 05:41:42;;;;;;;10.23;4.10;;;4.40;99.90;;;;;;5112600;28;20686;-63
2022/02/12 05:44:09;;;;;;;8.38;4.13;;;4.40;99.90;;;;;;5104572;28;20615;-63
2022/02/12 05:46:36;;;;;;;7.10;3.58;;;4.40;99.90;;;;;;5100928;28;20219;-63
2022/02/12 05:49:07;;;;;;;8.02;3.15;;;4.40;99.90;;;;;;5114875;27;20227;-62
2022/02/12 05:51:34;;;;;;;5.72;3.25;;;4.50;99.90;;;;;;5111127;27;20315;-63
2022/02/12 05:54:03;;;;;;;7.18;3.70;;;4.40;99.90;;;;;;5105290;28;20223;-63
2022/02/12 05:56:30;;;;;;;6.57;3.35;;;4.50;99.90;;;;;;5113423;27;20259;-63
2022/02/12 05:58:57;;;;;;;9.13;4.30;;;4.50;99.90;;;;;;5114930;28;20246;-63
2022/02/12 06:01:24;;;;;;;7.55;3.60;;;4.50;99.90;;;;;;5099875;27;20215;-62
2022/02/12 06:03:51;;;;;;;8.60;3.50;;;4.50;99.90;;;;;;5114901;28;20227;-63
2022/02/12 06:06:20;;;;;;;6.57;4.15;;;4.40;99.90;;;;;;5100346;28;20211;-63
2022/02/12 06:08:47;;;;;;;5.95;3.58;;;4.50;99.90;;;;;;5105414;27;20223;-63
2022/02/12 06:11:14;;;;;;;7.25;3.40;;;4.40;99.90;;;;;;5114190;28;20249;-63
2022/02/12 06:13:41;;;;;;;7.70;3.92;;;4.40;99.90;;;;;;5102700;28;20254;-63
2022/02/12 06:16:10;;;;;;;4.60;4.00;;;4.40;99.90;;;;;;5107150;28;20678;-63
2022/02/12 06:18:37;;;;;;;4.55;2.83;;;4.40;99.90;;;;;;5106845;28;20264;-63
2022/02/12 06:21:06;;;;;;;8.35;4.65;;;4.40;99.90;;;;;;5100581;28;20699;-63
2022/02/12 06:23:39;;;;;;;5.28;3.78;;;4.40;99.90;;;;;;5101161;28;20542;-63
2022/02/12 06:26:07;;;;;;;7.82;3.55;;;4.40;99.90;;;;;;5101450;28;20226;-63
2022/02/12 06:28:34;;;;;;;4.32;3.25;;;4.40;99.90;;;;;;5113733;28;20227;-63
2022/02/12 06:31:02;;;;;;;7.68;4.05;;;4.40;99.90;;;;;;5101480;28;20227;-63
2022/02/12 06:33:29;;;;;;;9.43;2.95;;;4.40;99.90;;;;;;5098953;28;20216;-63
2022/02/12 06:35:56;;;;;;;6.20;3.92;;;4.40;99.90;;;;;;5091135;28;20223;-62
2022/02/12 06:38:23;;;;;;;7.03;4.20;;;4.40;99.90;;;;;;5090778;28;20368;-63
2022/02/12 06:40:51;;;;;;;11.98;4.57;;;4.30;99.90;;;;;;5098618;27;20223;-63
2022/02/12 06:43:18;;;;;;;6.53;3.35;;;4.40;99.90;;;;;;5112012;27;20237;-63
2022/02/12 06:45:45;;;;;;;6.60;3.95;;;4.30;99.90;;;;;;5112090;27;20327;-63
2022/02/12 06:48:11;;;;;;;8.43;4.45;;;4.30;99.90;;;;;;5111498;27;20249;-63
2022/02/12 06:50:38;;;;;;;4.70;3.83;;;4.30;99.90;;;;;;5112118;27;20223;-63
2022/02/12 06:53:05;;;;;;;9.45;4.53;;;4.30;99.90;;;;;;5111754;27;20565;-63
2022/02/12 06:55:32;;;;;;;4.85;3.30;;;4.30;99.90;;;;;;5111713;27;20214;-63
2022/02/12 06:58:01;;;;;;;6.90;3.85;;;4.30;99.90;;;;;;5113055;27;20231;-63
2022/02/12 07:00:30;;;;;;;9.13;3.75;;;4.30;99.90;;;;;;5113291;27;20223;-63
2022/02/12 07:02:57;;;;;;;9.80;4.82;;;4.30;99.90;;;;;;5114009;27;20632;-63
2022/02/12 07:05:23;;;;;;;12.45;5.00;;;4.30;99.90;;;;;;5113147;27;20238;-63
2022/02/12 07:07:52;;;;;;;12.63;5.32;;;4.40;99.90;;;;;;5093877;28;20216;-63
2022/02/12 07:10:21;;;;;;;9.10;6.55;;;4.40;99.90;;;;;;5092938;28;20228;-63
2022/02/12 07:12:47;;;;;;;7.18;4.53;;;4.40;99.90;;;;;;5093378;28;20562;-64
2022/02/12 07:15:16;;;;;;;4.95;3.85;;;4.40;99.90;;;;;;5092882;28;20223;-63
2022/02/12 07:17:42;;;;;;;8.38;4.93;;;4.30;99.90;;;;;;5104787;27;20572;-63
2022/02/12 07:20:11;;;;;;;8.88;4.82;;;4.40;99.90;;;;;;5113290;27;20230;-64
2022/02/12 07:22:40;;;;;;;11.48;6.53;;;4.40;99.90;;;;;;5113029;27;20238;-63
2022/02/12 07:25:08;;;;;;;11.25;6.93;;;4.40;99.90;;;;;;5113403;27;20258;-63
2022/02/12 07:27:35;;;;;;;12.52;8.80;;;4.40;99.90;;;;;;5113104;27;20235;-63
2022/02/12 07:30:02;;;;;;;12.20;7.75;;;4.40;99.90;;;;;;5113400;27;20592;-62
2022/02/12 07:32:30;;;;;;;9.95;8.38;;;4.30;99.90;;;;;;5112983;27;20223;-62
2022/02/12 07:34:57;;;;;;;12.23;6.35;;;4.30;99.90;;;;;;5113352;27;20223;-64
2022/02/12 07:37:24;;;;;;;21.77;11.40;;;4.30;99.90;;;;;;5112811;27;20253;-63
2022/02/12 07:39:51;;;;;;;23.13;13.80;;;4.30;99.90;;;;;;5113032;27;20227;-63
2022/02/12 07:42:18;;;;;;;14.50;9.68;;;4.20;99.90;;;;;;5112742;27;20226;-64
2022/02/12 07:44:45;;;;;;;11.82;5.70;;;4.20;99.90;;;;;;5113218;27;20219;-63
2022/02/12 07:47:12;;;;;;;11.45;5.72;;;4.20;99.90;;;;;;5113221;27;20680;-63
2022/02/12 07:49:41;;;;;;;7.80;4.90;;;4.20;99.90;;;;;;5112647;27;20268;-63
2022/02/12 07:52:08;;;;;;;6.53;4.50;;;4.20;99.90;;;;;;5112845;27;20223;-63
2022/02/12 07:54:35;;;;;;;7.93;4.93;;;4.20;99.90;;;;;;5112742;27;20277;-63
2022/02/12 07:57:02;;;;;;;6.50;4.90;;;4.20;99.90;;;;;;5112972;27;20684;-63
2022/02/12 07:59:29;;;;;;;11.45;4.75;;;4.20;99.90;;;;;;5112467;27;20227;-62
2022/02/12 08:01:55;;;;;;;7.05;3.97;;;4.10;99.90;;;;;;5112852;27;20214;-64
2022/02/12 08:04:22;;;;;;;7.35;4.10;;;4.20;99.90;;;;;;5112513;28;20396;-63
2022/02/12 08:09:34;;;;;;;14.52;5.38;;;4.20;99.90;;;;;;5112655;27;20238;-63
2022/02/12 08:12:13;;;;;;;8.93;5.53;;;4.20;99.90;;;;;;5112709;27;20231;-63
2022/02/12 08:14:42;;;;;;;6.05;4.63;;;4.20;99.90;;;;;;5112394;27;20760;-63
2022/02/12 08:17:09;;;;;;;7.60;4.45;;;4.30;99.90;;;;;;5112778;27;20235;-63
2022/02/12 08:19:37;;;;;;;14.98;5.10;;;4.30;99.90;;;;;;5112228;27;20253;-63
2022/02/12 08:22:05;;;;;;;9.90;6.88;;;4.30;99.90;;;;;;5112587;27;20235;-63
2022/02/12 08:24:32;;;;;;;10.30;6.03;;;4.40;99.90;;;;;;5112308;27;20231;-63
2022/02/12 08:26:59;;;;;;;9.75;6.25;;;4.50;99.90;;;;;;5112601;27;20276;-63
2022/02/12 08:29:28;;;;;;;9.75;6.55;;;4.60;99.90;;;;;;5114132;27;20223;-63
2022/02/12 08:31:55;;;;;;;8.40;5.85;;;4.60;99.90;;;;;;5116690;27;20234;-62
2022/02/12 08:34:23;;;;;;;10.80;5.22;;;4.70;99.90;;;;;;5115764;27;20693;-62
2022/02/12 08:36:50;;;;;;;9.25;5.80;;;4.70;99.90;;;;;;5116756;27;20539;-63
2022/02/12 08:39:19;;;;;;;5.00;4.50;;;4.80;99.90;;;;;;5116542;27;20227;-62
2022/02/12 08:41:46;;;;;;;8.15;4.45;;;4.90;99.90;;;;;;5115741;27;20223;-63
2022/02/12 08:44:13;;;;;;;13.57;4.88;;;4.90;99.90;;;;;;5116265;27;20235;-62
2022/02/12 08:46:40;;;;;;;5.65;4.90;;;4.90;99.90;;;;;;5116214;27;20238;-63
2022/02/12 08:49:07;;;;;;;15.05;5.90;;;4.90;99.90;;;;;;5116445;27;20238;-64
2022/02/12 08:51:37;;;;;;;8.35;4.40;;;4.90;99.90;;;;;;5115713;27;20613;-64
2022/02/12 08:54:04;;;;;;;12.10;6.45;;;5.00;99.90;;;;;;5116263;27;20318;-64
2022/02/12 08:56:33;;;;;;;9.50;5.35;;;5.00;99.90;;;;;;5115747;27;20302;-64
2022/02/12 08:59:00;;;;;;;15.10;6.07;;;5.10;99.90;;;;;;5116360;27;20280;-64
2022/02/12 09:01:28;;;;;;;8.98;6.63;;;5.20;99.90;;;;;;5115793;27;20599;-63
2022/02/12 09:03:55;;;;;;;10.45;5.65;;;5.20;99.90;;;;;;5116239;28;20240;-63
2022/02/12 09:06:22;;;;;;;15.13;6.43;;;5.30;99.90;;;;;;5116002;28;20237;-63
2022/02/12 09:08:51;;;;;;;15.23;8.38;;;5.30;99.90;;;;;;5115633;27;20219;-63
2022/02/12 09:11:19;;;;;;;21.70;14.60;;;5.40;99.90;;;;;;5115868;27;20547;-64
2022/02/12 09:13:47;;;;;;;14.73;9.45;;;5.50;99.90;;;;;;5115679;27;20622;-64
2022/02/12 09:16:14;;;;;;;16.65;8.77;;;5.50;99.90;;;;;;5116003;27;20242;-63
2022/02/12 09:18:41;;;;;;;17.60;9.93;;;5.60;99.90;;;;;;5115396;27;20223;-64
2022/02/12 09:21:08;;;;;;;8.77;4.55;;;5.70;99.90;;;;;;5115633;27;20683;-64
2022/02/12 09:23:35;;;;;;;9.55;5.10;;;5.70;99.90;;;;;;5115282;27;20219;-63
2022/02/12 09:26:01;;;;;;;7.72;4.07;;;5.80;99.90;;;;;;5115783;27;20219;-63
2022/02/12 09:28:28;;;;;;;6.72;4.60;;;5.80;99.90;;;;;;5115431;27;20219;-63
2022/02/12 09:30:56;;;;;;;8.35;4.28;;;5.80;99.90;;;;;;5115554;27;20233;-63
2022/02/12 09:33:23;;;;;;;7.22;4.85;;;5.90;99.80;;;;;;5115626;27;20226;-63
2022/02/12 09:35:53;;;;;;;10.60;3.80;;;5.90;99.80;;;;;;5115162;27;20210;-62
2022/02/12 09:38:20;;;;;;;7.03;4.68;;;6.00;99.60;;;;;;5115611;27;20245;-64
2022/02/12 09:40:47;;;;;;;11.13;5.25;;;6.10;99.60;;;;;;5114192;27;20691;-64
2022/02/12 09:43:14;;;;;;;7.05;4.18;;;6.10;99.50;;;;;;5115560;27;20223;-62
2022/02/12 09:45:52;;;;;;;12.32;6.38;;;6.20;99.30;;;;;;5114778;27;20272;-63
2022/02/12 09:48:22;;;;;;;9.75;4.72;;;6.30;99.20;;;;;;5115280;27;20475;-63
2022/02/12 09:50:51;;;;;;;6.60;3.55;;;6.30;99.20;;;;;;5114745;27;20234;-63
2022/02/12 09:53:19;;;;;;;5.68;4.60;;;6.40;99.10;;;;;;5115058;27;20222;-63
2022/02/12 09:55:45;;;;;;;11.25;3.60;;;6.50;99.10;;;;;;5114616;27;20227;-64
2022/02/12 09:58:14;;;;;;;6.43;4.75;;;6.50;99.00;;;;;;5115072;27;20225;-64
2022/02/12 10:00:41;;;;;;;4.05;3.50;;;6.60;98.80;;;;;;5114537;27;20215;-64
2022/02/12 10:03:08;;;;;;;4.68;2.88;;;6.60;98.30;;;;;;5114955;27;20223;-63
2022/02/12 10:05:38;;;;;;;5.93;2.83;;;6.60;98.20;;;;;;5114192;28;20223;-63
2022/02/12 10:08:16;;;;;;;6.63;3.45;;;6.70;97.80;;;;;;5105417;28;20269;-63
2022/02/12 10:10:44;;;;;;;6.20;3.20;;;6.70;97.50;;;;;;5093196;28;20224;-64
2022/02/12 10:13:14;;;;;;;7.30;2.80;;;6.80;97.20;;;;;;5093744;28;20220;-62
2022/02/12 10:15:42;;;;;;;8.93;3.50;;;6.90;97.20;;;;;;5093961;28;20220;-63
2022/02/12 10:18:10;;;;;;;8.15;3.55;;;6.90;96.90;;;;;;5094325;28;20670;-63
2022/02/12 10:20:40;;;;;;;7.93;5.55;;;6.90;96.40;;;;;;5093604;28;20223;-63
2022/02/12 10:23:10;;;;;;;7.80;4.18;;;7.00;96.50;;;;;;5094305;28;20224;-63
2022/02/12 10:25:38;;;;;;;11.90;3.70;;;7.00;96.60;;;;;;5093868;28;20220;-63
2022/02/12 10:28:06;;;;;;;6.13;2.75;;;7.10;96.50;;;;;;5093948;28;20220;-64
2022/02/12 10:30:34;;;;;;;8.43;3.33;;;7.10;96.30;;;;;;5093660;28;20216;-63
2022/02/12 10:33:03;;;;;;;8.02;3.92;;;7.20;96.10;;;;;;5094319;28;20219;-63
2022/02/12 10:35:31;;;;;;;11.48;5.82;;;7.20;95.80;;;;;;5093875;28;20529;-63
2022/02/12 10:38:02;;;;;;;11.73;4.35;;;7.20;95.70;;;;;;5093749;28;20235;-63
2022/02/12 10:40:30;;;;;;;6.97;4.10;;;7.30;95.70;;;;;;5093740;28;20224;-63
2022/02/12 10:42:57;;;;;;;7.10;3.78;;;7.30;95.50;;;;;;5093448;28;20726;-63
2022/02/12 10:45:26;;;;;;;3.55;2.50;;;7.40;95.10;;;;;;5093723;28;20224;-63
2022/02/12 10:47:54;;;;;;;5.03;2.53;;;7.40;94.90;;;;;;5093573;28;20224;-64
2022/02/12 10:50:23;;;;;;;8.75;4.60;;;7.50;94.80;;;;;;5093723;28;20227;-64
2022/02/12 10:52:52;;;;;;;5.75;3.78;;;7.50;94.80;;;;;;5092067;28;20230;-62
2022/02/12 10:55:35;;;;;;;8.38;5.05;;;7.60;95.00;;;;;;5093782;28;20687;-65
2022/02/12 10:58:04;;;;;;;9.52;6.18;;;7.60;94.70;;;;;;5113954;27;20956;-63
2022/02/12 11:00:33;;;;;;;9.75;4.88;;;7.60;94.70;;;;;;5113545;27;20237;-63
2022/02/12 11:03:04;;;;;;;10.00;5.18;;;7.60;94.00;;;;;;5113368;27;20233;-63
2022/02/12 11:05:34;;;;;;;10.18;4.30;;;7.70;94.10;;;;;;5113935;28;20219;-62
2022/02/12 11:08:03;;;;;;;6.78;4.25;;;7.70;93.90;;;;;;5104384;28;20605;-63
2022/02/12 11:10:31;;;;;;;8.98;4.13;;;7.70;93.10;;;;;;5093032;28;20231;-64
2022/02/12 11:12:59;;;;;;;4.95;3.30;;;7.70;92.70;;;;;;5092995;28;20239;-63
2022/02/12 11:15:27;;;;;;;9.60;4.03;;;7.80;93.00;;;;;;5093239;28;20653;-63
2022/02/12 11:17:55;;;;;;;6.80;2.78;;;7.80;93.30;;;;;;5092859;28;20227;-62
2022/02/12 11:20:23;;;;;;;7.20;3.58;;;7.90;93.40;;;;;;5093358;28;20235;-64
2022/02/12 11:22:55;;;;;;;5.93;3.63;;;7.90;93.30;;;;;;5092577;28;20224;-63
2022/02/12 11:25:37;;;;;;;4.40;2.85;;;7.90;93.10;;;;;;5092994;28;20708;-63
2022/02/12 11:28:06;;;;;;;6.25;2.92;;;7.80;93.10;;;;;;5092561;28;20681;-63
2022/02/12 11:30:32;;;;;;;4.88;2.28;;;7.90;93.10;;;;;;5093181;28;20317;-64
2022/02/12 11:33:07;;;;;;;4.63;2.83;;;7.90;93.30;;;;;;5092515;28;20223;-63
2022/02/12 11:35:33;;;;;;;8.70;5.28;;;8.00;93.20;;;;;;5093001;28;20220;-63
2022/02/12 11:38:01;;;;;;;12.25;5.85;;;8.00;92.10;;;;;;5092462;28;20607;-63
2022/02/12 11:43:52;;;;;;;5.18;4.32;;;7.90;90.80;;;;;;5112266;27;20225;-63
2022/02/12 11:46:44;;;;;;;7.82;3.05;;;8.00;91.10;;;;;;5113241;27;20220;-63
2022/02/12 11:49:36;;;;;;;4.72;2.90;;;8.00;91.10;;;;;;5113220;27;20279;-62
2022/02/12 11:54:59;;;;;;;18.02;9.55;;;8.10;91.20;;;;;;5112957;27;20722;-63
2022/02/12 11:57:45;;;;;;;5.05;3.85;;;8.20;91.30;;;;;;5112567;27;20224;-63
2022/02/12 12:00:39;;;;;;;7.88;5.35;;;8.20;90.50;;;;;;5112563;27;20320;-63
2022/02/12 12:06:20;;;;;;;10.35;5.90;;;8.30;89.80;;;;;;5113076;27;20226;-64
2022/02/12 12:09:06;;;;;;;5.00;3.50;;;8.30;88.30;;;;;;5112790;27;20215;-63
2022/02/12 12:11:33;;;;;;;2.72;2.53;;;8.30;84.60;;;;;;5112771;27;20592;-63
2022/02/12 12:14:32;;;;;;;4.97;2.10;;;8.30;84.30;;;;;;5112451;27;20294;-63
2022/02/12 12:17:09;;;;;;;3.50;1.80;;;8.30;84.10;;;;;;5112506;27;20297;-63
2022/02/12 12:19:38;;;;;;;4.05;1.92;;;8.30;82.20;;;;;;5112931;27;20242;-64
2022/02/12 12:22:06;;;;;;;5.03;2.25;;;8.20;82.50;;;;;;5112059;27;20223;-62
2022/02/12 12:24:34;;;;;;;4.65;2.60;;;8.30;83.20;;;;;;5112719;27;20326;-63
2022/02/12 12:27:01;;;;;;;5.18;2.40;;;8.30;82.70;;;;;;5112395;27;20306;-62
2022/02/12 12:32:17;;;;;;;5.25;3.63;;;8.40;81.90;;;;;;5112700;27;20233;-63
2022/02/12 12:37:51;;;;;;;9.05;5.82;;;8.40;81.50;;;;;;5133005;27;20230;-63
2022/02/12 12:40:26;;;;;;;3.45;2.20;;;8.30;82.00;;;;;;5133003;27;20506;-63
2022/02/12 12:42:59;;;;;;;3.80;1.85;;;8.30;82.30;;;;;;5132979;27;20231;-63
2022/02/12 12:45:26;;;;;;;4.82;2.50;;;8.20;82.10;;;;;;5118580;27;20215;-63
2022/02/12 12:48:01;;;;;;;6.82;4.43;;;8.20;82.90;;;;;;5091920;28;20224;-63
2022/02/12 12:50:38;;;;;;;6.95;4.55;;;8.20;83.60;;;;;;5091987;28;20223;-63
2022/02/12 12:53:07;;;;;;;14.05;9.00;;;8.30;84.10;;;;;;5091877;28;20215;-63
2022/02/12 12:55:34;;;;;;;11.45;5.55;;;8.30;83.80;;;;;;5094205;28;20231;-63
2022/02/12 12:58:11;;;;;;;5.72;2.90;;;8.20;84.00;;;;;;5111962;27;20559;-63
2022/02/12 13:00:38;;;;;;;4.20;2.03;;;8.20;84.30;;;;;;5112306;27;20284;-63
2022/02/12 13:03:06;;;;;;;3.95;3.00;;;8.20;84.70;;;;;;5112050;27;20215;-64
2022/02/12 13:05:33;;;;;;;5.40;3.05;;;8.20;84.00;;;;;;5112366;28;20231;-64
2022/02/12 13:08:02;;;;;;;5.10;2.10;;;8.10;82.60;;;;;;5111837;28;20222;-64
2022/02/12 13:14:02;;;;;;;2.92;2.00;;;8.20;83.00;;;;;;5111098;27;20268;-62
2022/02/12 13:16:35;;;;;;;6.05;2.47;;;8.20;83.00;;;;;;5113521;27;20223;-63
2022/02/12 13:19:04;;;;;;;4.30;2.63;;;8.20;83.40;;;;;;5115856;27;20219;-64
2022/02/12 13:21:31;;;;;;;3.75;3.25;;;8.20;84.50;;;;;;5115528;27;20661;-63
2022/02/12 13:24:03;;;;;;;6.22;3.60;;;8.20;84.40;;;;;;5115559;27;20231;-64
2022/02/12 13:26:31;;;;;;;2.85;1.75;;;8.20;84.10;;;;;;5115106;27;20223;-63
2022/02/12 13:28:58;;;;;;;2.65;2.10;;;8.20;83.00;;;;;;5115662;27;20678;-63